Ana Sayfa
METAR-TAF:

METAR-TAF

Havaalanları :

Sallisaw, Oklahoma, Amerika Birleşik Devletleri

Enlem: 35-26-17N, Boylam: 094-48-10W, yükseklik: 161 m

Güncel hava durumu gözlemi

Rapor saat 21:15 UTC de 19 dakika önce yapıldı.
Rüzgar doğudan 4 kt
Sıcaklık 31°C
Nem 63%
Basınç 1022 hPa
Görüş mesafesi: 16.1 km
Açık gökyüzü

METAR: KJSV 202115Z AUTO 10004KT 10SM CLR 31/23 A3018 RMK AO2

Saat: 16:34 (21:34 UTC)


TAF: eksik

4.000'den fazla havaalanı için hava durumu gözlemleri ve tahminleri (METAR ve TAF raporları).

Kullanılabilir istasyonlar harita üzerinde sarı ve kırmızı noktalarla gösterilir.

İstasyonun adını görmek için fareyi noktanın üzerinde gezdirin.

Sonrasında hava gözlem ve tahminlerini görmek için tıklayın.

Haritayı değiştirmek için: yaklaştırmak için siyah artı işaretli yeşil düğmeye ve uzaklaştırmak için de eksi işaretli düğmeye hızla tıklayın; bitişik haritalar için yeşil okları kullanın.


METAR-TAF: